<?xml version="1.0" encoding="UTF-8" standalone="no" ?>
<gpx xmlns="http://www.topografix.com/GPX/1/1" xmlns:xsi="http://www.w3.org/2001/XMLSchema-instance" xsi:schemaLocation="http://www.topografix.com/GPX/1/1 http://www.topografix.com/GPX/1/1/gpx.xsd" version="1.1" creator="VisuGPX - https://www.visugpx.com">
  <metadata>
    <name>13838734-Etaples 24km</name>
  </metadata>
  <trk>
    <name><![CDATA[13838734-Etaples 24km]]></name>
    <trkseg>
      <trkpt lat="50.51925" lon="1.62805">
        <ele>4</ele>
        <time>2022-06-28T20:47:02Z</time>
      </trkpt>
      <trkpt lat="50.51968" lon="1.62805">
        <ele>4</ele>
        <time>2022-06-28T20:47:59Z</time>
      </trkpt>
      <trkpt lat="50.52006" lon="1.62803">
        <ele>4</ele>
        <time>2022-06-28T20:48:50Z</time>
      </trkpt>
      <trkpt lat="50.52045" lon="1.62789">
        <ele>5</ele>
        <time>2022-06-28T20:49:44Z</time>
      </trkpt>
      <trkpt lat="50.52075" lon="1.62804">
        <ele>5</ele>
        <time>2022-06-28T20:50:26Z</time>
      </trkpt>
      <trkpt lat="50.52086" lon="1.62732">
        <ele>5</ele>
        <time>2022-06-28T20:51:28Z</time>
      </trkpt>
      <trkpt lat="50.52279" lon="1.6259">
        <ele>5</ele>
        <time>2022-06-28T20:56:13Z</time>
      </trkpt>
      <trkpt lat="50.5236" lon="1.62576">
        <ele>7</ele>
        <time>2022-06-28T20:58:01Z</time>
      </trkpt>
      <trkpt lat="50.52383" lon="1.62549">
        <ele>6</ele>
        <time>2022-06-28T20:58:40Z</time>
      </trkpt>
      <trkpt lat="50.52485" lon="1.62506">
        <ele>7</ele>
        <time>2022-06-28T21:01:01Z</time>
      </trkpt>
      <trkpt lat="50.52702" lon="1.62355">
        <ele>5</ele>
        <time>2022-06-28T21:06:17Z</time>
      </trkpt>
      <trkpt lat="50.52883" lon="1.62237">
        <ele>5</ele>
        <time>2022-06-28T21:10:39Z</time>
      </trkpt>
      <trkpt lat="50.5297" lon="1.62182">
        <ele>5</ele>
        <time>2022-06-28T21:12:44Z</time>
      </trkpt>
      <trkpt lat="50.53204" lon="1.62107">
        <ele>7</ele>
        <time>2022-06-28T21:18:03Z</time>
      </trkpt>
      <trkpt lat="50.53352" lon="1.6201">
        <ele>5</ele>
        <time>2022-06-28T21:21:36Z</time>
      </trkpt>
      <trkpt lat="50.53474" lon="1.61816">
        <ele>5</ele>
        <time>2022-06-28T21:25:28Z</time>
      </trkpt>
      <trkpt lat="50.53524" lon="1.61784">
        <ele>5</ele>
        <time>2022-06-28T21:26:40Z</time>
      </trkpt>
      <trkpt lat="50.53459" lon="1.61597">
        <ele>5</ele>
        <time>2022-06-28T21:29:41Z</time>
      </trkpt>
      <trkpt lat="50.53476" lon="1.61519">
        <ele>4</ele>
        <time>2022-06-28T21:30:51Z</time>
      </trkpt>
      <trkpt lat="50.5372" lon="1.61386">
        <ele>5</ele>
        <time>2022-06-28T21:36:35Z</time>
      </trkpt>
      <trkpt lat="50.53887" lon="1.61282">
        <ele>5</ele>
        <time>2022-06-28T21:40:35Z</time>
      </trkpt>
      <trkpt lat="50.53887" lon="1.61184">
        <ele>4</ele>
        <time>2022-06-28T21:41:58Z</time>
      </trkpt>
      <trkpt lat="50.53853" lon="1.61102">
        <ele>4</ele>
        <time>2022-06-28T21:43:21Z</time>
      </trkpt>
      <trkpt lat="50.53978" lon="1.6097">
        <ele>6</ele>
        <time>2022-06-28T21:46:42Z</time>
      </trkpt>
      <trkpt lat="50.54032" lon="1.61066">
        <ele>7</ele>
        <time>2022-06-28T21:48:31Z</time>
      </trkpt>
      <trkpt lat="50.5405" lon="1.61145">
        <ele>7</ele>
        <time>2022-06-28T21:49:42Z</time>
      </trkpt>
      <trkpt lat="50.54051" lon="1.61323">
        <ele>7</ele>
        <time>2022-06-28T21:52:13Z</time>
      </trkpt>
      <trkpt lat="50.5405" lon="1.61733">
        <ele>10</ele>
        <time>2022-06-28T21:58:01Z</time>
      </trkpt>
      <trkpt lat="50.54101" lon="1.61986">
        <ele>20</ele>
        <time>2022-06-28T22:01:46Z</time>
      </trkpt>
      <trkpt lat="50.54126" lon="1.62217">
        <ele>32</ele>
        <time>2022-06-28T22:05:04Z</time>
      </trkpt>
      <trkpt lat="50.54216" lon="1.62166">
        <ele>31</ele>
        <time>2022-06-28T22:07:12Z</time>
      </trkpt>
      <trkpt lat="50.54214" lon="1.62047">
        <ele>26</ele>
        <time>2022-06-28T22:08:53Z</time>
      </trkpt>
      <trkpt lat="50.54294" lon="1.61984">
        <ele>23</ele>
        <time>2022-06-28T22:10:52Z</time>
      </trkpt>
      <trkpt lat="50.54306" lon="1.61885">
        <ele>20</ele>
        <time>2022-06-28T22:12:18Z</time>
      </trkpt>
      <trkpt lat="50.5438" lon="1.61825">
        <ele>21</ele>
        <time>2022-06-28T22:14:09Z</time>
      </trkpt>
      <trkpt lat="50.54552" lon="1.6183">
        <ele>19</ele>
        <time>2022-06-28T22:17:59Z</time>
      </trkpt>
      <trkpt lat="50.54622" lon="1.61894">
        <ele>20</ele>
        <time>2022-06-28T22:19:47Z</time>
      </trkpt>
      <trkpt lat="50.54822" lon="1.61859">
        <ele>23</ele>
        <time>2022-06-28T22:24:15Z</time>
      </trkpt>
      <trkpt lat="50.54958" lon="1.61849">
        <ele>26</ele>
        <time>2022-06-28T22:27:17Z</time>
      </trkpt>
      <trkpt lat="50.55039" lon="1.61852">
        <ele>30</ele>
        <time>2022-06-28T22:29:05Z</time>
      </trkpt>
      <trkpt lat="50.55141" lon="1.61868">
        <ele>32</ele>
        <time>2022-06-28T22:31:22Z</time>
      </trkpt>
      <trkpt lat="50.55155" lon="1.61889">
        <ele>34</ele>
        <time>2022-06-28T22:31:48Z</time>
      </trkpt>
      <trkpt lat="50.55165" lon="1.61915">
        <ele>37</ele>
        <time>2022-06-28T22:32:13Z</time>
      </trkpt>
      <trkpt lat="50.55204" lon="1.61922">
        <ele>37</ele>
        <time>2022-06-28T22:33:06Z</time>
      </trkpt>
      <trkpt lat="50.55201" lon="1.61882">
        <ele>35</ele>
        <time>2022-06-28T22:33:40Z</time>
      </trkpt>
      <trkpt lat="50.55375" lon="1.61928">
        <ele>42</ele>
        <time>2022-06-28T22:37:35Z</time>
      </trkpt>
      <trkpt lat="50.55901" lon="1.61836">
        <ele>35</ele>
        <time>2022-06-28T22:49:22Z</time>
      </trkpt>
      <trkpt lat="50.56018" lon="1.61589">
        <ele>32</ele>
        <time>2022-06-28T22:53:43Z</time>
      </trkpt>
      <trkpt lat="50.56065" lon="1.61399">
        <ele>20</ele>
        <time>2022-06-28T22:56:36Z</time>
      </trkpt>
      <trkpt lat="50.5618" lon="1.61421">
        <ele>21</ele>
        <time>2022-06-28T22:59:10Z</time>
      </trkpt>
      <trkpt lat="50.56242" lon="1.61347">
        <ele>19</ele>
        <time>2022-06-28T23:00:54Z</time>
      </trkpt>
      <trkpt lat="50.56344" lon="1.61322">
        <ele>19</ele>
        <time>2022-06-28T23:03:12Z</time>
      </trkpt>
      <trkpt lat="50.56399" lon="1.61237">
        <ele>19</ele>
        <time>2022-06-28T23:04:55Z</time>
      </trkpt>
      <trkpt lat="50.56434" lon="1.60988">
        <ele>21</ele>
        <time>2022-06-28T23:08:31Z</time>
      </trkpt>
      <trkpt lat="50.56413" lon="1.60925">
        <ele>21</ele>
        <time>2022-06-28T23:09:31Z</time>
      </trkpt>
      <trkpt lat="50.56419" lon="1.60779">
        <ele>19</ele>
        <time>2022-06-28T23:11:35Z</time>
      </trkpt>
      <trkpt lat="50.56371" lon="1.60726">
        <ele>20</ele>
        <time>2022-06-28T23:12:53Z</time>
      </trkpt>
      <trkpt lat="50.56199" lon="1.59755">
        <ele>18</ele>
        <time>2022-06-28T23:27:08Z</time>
      </trkpt>
      <trkpt lat="50.56115" lon="1.59635">
        <ele>16</ele>
        <time>2022-06-28T23:29:39Z</time>
      </trkpt>
      <trkpt lat="50.55962" lon="1.59281">
        <ele>14</ele>
        <time>2022-06-28T23:35:42Z</time>
      </trkpt>
      <trkpt lat="50.55821" lon="1.5914">
        <ele>13</ele>
        <time>2022-06-28T23:39:25Z</time>
      </trkpt>
      <trkpt lat="50.55705" lon="1.58908">
        <ele>2</ele>
        <time>2022-06-28T23:43:35Z</time>
      </trkpt>
      <trkpt lat="50.55832" lon="1.58719">
        <ele>5</ele>
        <time>2022-06-28T23:47:29Z</time>
      </trkpt>
      <trkpt lat="50.56017" lon="1.58502">
        <ele>1</ele>
        <time>2022-06-28T23:52:37Z</time>
      </trkpt>
      <trkpt lat="50.56291" lon="1.58213">
        <ele>4</ele>
        <time>2022-06-28T23:59:57Z</time>
      </trkpt>
      <trkpt lat="50.56428" lon="1.58071">
        <ele>5</ele>
        <time>2022-06-29T00:03:36Z</time>
      </trkpt>
      <trkpt lat="50.56704" lon="1.57885">
        <ele>6</ele>
        <time>2022-06-29T00:10:16Z</time>
      </trkpt>
      <trkpt lat="50.57007" lon="1.57719">
        <ele>4</ele>
        <time>2022-06-29T00:17:24Z</time>
      </trkpt>
      <trkpt lat="50.57288" lon="1.57631">
        <ele>4</ele>
        <time>2022-06-29T00:23:47Z</time>
      </trkpt>
      <trkpt lat="50.57508" lon="1.57643">
        <ele>2</ele>
        <time>2022-06-29T00:28:40Z</time>
      </trkpt>
      <trkpt lat="50.57539" lon="1.58028">
        <ele>10</ele>
        <time>2022-06-29T00:34:09Z</time>
      </trkpt>
      <trkpt lat="50.5749" lon="1.58735">
        <ele>15</ele>
        <time>2022-06-29T00:44:12Z</time>
      </trkpt>
      <trkpt lat="50.57506" lon="1.59309">
        <ele>17</ele>
        <time>2022-06-29T00:52:19Z</time>
      </trkpt>
      <trkpt lat="50.5753" lon="1.59933">
        <ele>18</ele>
        <time>2022-06-29T01:01:09Z</time>
      </trkpt>
      <trkpt lat="50.57522" lon="1.60329">
        <ele>20</ele>
        <time>2022-06-29T01:06:45Z</time>
      </trkpt>
      <trkpt lat="50.57494" lon="1.60405">
        <ele>20</ele>
        <time>2022-06-29T01:07:59Z</time>
      </trkpt>
      <trkpt lat="50.57497" lon="1.60456">
        <ele>20</ele>
        <time>2022-06-29T01:08:42Z</time>
      </trkpt>
      <trkpt lat="50.57532" lon="1.60502">
        <ele>21</ele>
        <time>2022-06-29T01:09:43Z</time>
      </trkpt>
      <trkpt lat="50.57537" lon="1.60593">
        <ele>22</ele>
        <time>2022-06-29T01:11:01Z</time>
      </trkpt>
      <trkpt lat="50.57388" lon="1.60602">
        <ele>23</ele>
        <time>2022-06-29T01:14:20Z</time>
      </trkpt>
      <trkpt lat="50.57172" lon="1.60682">
        <ele>23</ele>
        <time>2022-06-29T01:19:16Z</time>
      </trkpt>
      <trkpt lat="50.57199" lon="1.60791">
        <ele>22</ele>
        <time>2022-06-29T01:20:55Z</time>
      </trkpt>
      <trkpt lat="50.57197" lon="1.60887">
        <ele>23</ele>
        <time>2022-06-29T01:22:16Z</time>
      </trkpt>
      <trkpt lat="50.57296" lon="1.60965">
        <ele>25</ele>
        <time>2022-06-29T01:24:44Z</time>
      </trkpt>
      <trkpt lat="50.57324" lon="1.61056">
        <ele>27</ele>
        <time>2022-06-29T01:26:10Z</time>
      </trkpt>
      <trkpt lat="50.57351" lon="1.61268">
        <ele>25</ele>
        <time>2022-06-29T01:29:13Z</time>
      </trkpt>
      <trkpt lat="50.57186" lon="1.61331">
        <ele>21</ele>
        <time>2022-06-29T01:33:00Z</time>
      </trkpt>
      <trkpt lat="50.57065" lon="1.6135">
        <ele>21</ele>
        <time>2022-06-29T01:35:42Z</time>
      </trkpt>
      <trkpt lat="50.56849" lon="1.61361">
        <ele>21</ele>
        <time>2022-06-29T01:40:30Z</time>
      </trkpt>
      <trkpt lat="50.56598" lon="1.61354">
        <ele>21</ele>
        <time>2022-06-29T01:46:05Z</time>
      </trkpt>
      <trkpt lat="50.56375" lon="1.61333">
        <ele>19</ele>
        <time>2022-06-29T01:51:03Z</time>
      </trkpt>
      <trkpt lat="50.56246" lon="1.61362">
        <ele>20</ele>
        <time>2022-06-29T01:53:57Z</time>
      </trkpt>
      <trkpt lat="50.56188" lon="1.61432">
        <ele>22</ele>
        <time>2022-06-29T01:55:35Z</time>
      </trkpt>
      <trkpt lat="50.56073" lon="1.61413">
        <ele>20</ele>
        <time>2022-06-29T01:58:09Z</time>
      </trkpt>
      <trkpt lat="50.56027" lon="1.61581">
        <ele>31</ele>
        <time>2022-06-29T02:00:44Z</time>
      </trkpt>
      <trkpt lat="50.55912" lon="1.61827">
        <ele>35</ele>
        <time>2022-06-29T02:05:03Z</time>
      </trkpt>
      <trkpt lat="50.55845" lon="1.61938">
        <ele>41</ele>
        <time>2022-06-29T02:07:13Z</time>
      </trkpt>
      <trkpt lat="50.55774" lon="1.62133">
        <ele>54</ele>
        <time>2022-06-29T02:10:23Z</time>
      </trkpt>
      <trkpt lat="50.55733" lon="1.62143">
        <ele>56</ele>
        <time>2022-06-29T02:11:19Z</time>
      </trkpt>
      <trkpt lat="50.55626" lon="1.62199">
        <ele>65</ele>
        <time>2022-06-29T02:13:49Z</time>
      </trkpt>
      <trkpt lat="50.55575" lon="1.62266">
        <ele>73</ele>
        <time>2022-06-29T02:15:18Z</time>
      </trkpt>
      <trkpt lat="50.55614" lon="1.62354">
        <ele>80</ele>
        <time>2022-06-29T02:16:49Z</time>
      </trkpt>
      <trkpt lat="50.55597" lon="1.62447">
        <ele>82</ele>
        <time>2022-06-29T02:18:11Z</time>
      </trkpt>
      <trkpt lat="50.55591" lon="1.62503">
        <ele>81</ele>
        <time>2022-06-29T02:18:59Z</time>
      </trkpt>
      <trkpt lat="50.55545" lon="1.62577">
        <ele>79</ele>
        <time>2022-06-29T02:20:27Z</time>
      </trkpt>
      <trkpt lat="50.55572" lon="1.62627">
        <ele>77</ele>
        <time>2022-06-29T02:21:22Z</time>
      </trkpt>
      <trkpt lat="50.55291" lon="1.63174">
        <ele>91</ele>
        <time>2022-06-29T02:31:19Z</time>
      </trkpt>
      <trkpt lat="50.55194" lon="1.63114">
        <ele>89</ele>
        <time>2022-06-29T02:33:38Z</time>
      </trkpt>
      <trkpt lat="50.55107" lon="1.63448">
        <ele>77</ele>
        <time>2022-06-29T02:38:44Z</time>
      </trkpt>
      <trkpt lat="50.55083" lon="1.63787">
        <ele>82</ele>
        <time>2022-06-29T02:43:33Z</time>
      </trkpt>
      <trkpt lat="50.55023" lon="1.63807">
        <ele>87</ele>
        <time>2022-06-29T02:44:55Z</time>
      </trkpt>
      <trkpt lat="50.55162" lon="1.63867">
        <ele>89</ele>
        <time>2022-06-29T02:48:07Z</time>
      </trkpt>
      <trkpt lat="50.55203" lon="1.64079">
        <ele>92</ele>
        <time>2022-06-29T02:51:15Z</time>
      </trkpt>
      <trkpt lat="50.55257" lon="1.64208">
        <ele>93</ele>
        <time>2022-06-29T02:53:26Z</time>
      </trkpt>
      <trkpt lat="50.55318" lon="1.64251">
        <ele>89</ele>
        <time>2022-06-29T02:54:55Z</time>
      </trkpt>
      <trkpt lat="50.55392" lon="1.64378">
        <ele>91</ele>
        <time>2022-06-29T02:57:22Z</time>
      </trkpt>
      <trkpt lat="50.55328" lon="1.64468">
        <ele>95</ele>
        <time>2022-06-29T02:59:16Z</time>
      </trkpt>
      <trkpt lat="50.54938" lon="1.65066">
        <ele>65</ele>
        <time>2022-06-29T03:11:23Z</time>
      </trkpt>
      <trkpt lat="50.54819" lon="1.65111">
        <ele>78</ele>
        <time>2022-06-29T03:14:06Z</time>
      </trkpt>
      <trkpt lat="50.54833" lon="1.65199">
        <ele>87</ele>
        <time>2022-06-29T03:15:23Z</time>
      </trkpt>
      <trkpt lat="50.54759" lon="1.6544">
        <ele>82</ele>
        <time>2022-06-29T03:19:10Z</time>
      </trkpt>
      <trkpt lat="50.54724" lon="1.65536">
        <ele>82</ele>
        <time>2022-06-29T03:20:44Z</time>
      </trkpt>
      <trkpt lat="50.54631" lon="1.6565">
        <ele>77</ele>
        <time>2022-06-29T03:23:21Z</time>
      </trkpt>
      <trkpt lat="50.54425" lon="1.65671">
        <ele>67</ele>
        <time>2022-06-29T03:27:57Z</time>
      </trkpt>
      <trkpt lat="50.54316" lon="1.65393">
        <ele>59</ele>
        <time>2022-06-29T03:32:34Z</time>
      </trkpt>
      <trkpt lat="50.5421" lon="1.65214">
        <ele>55</ele>
        <time>2022-06-29T03:36:01Z</time>
      </trkpt>
      <trkpt lat="50.54091" lon="1.65062">
        <ele>50</ele>
        <time>2022-06-29T03:39:26Z</time>
      </trkpt>
      <trkpt lat="50.53963" lon="1.64704">
        <ele>51</ele>
        <time>2022-06-29T03:45:14Z</time>
      </trkpt>
      <trkpt lat="50.53812" lon="1.64403">
        <ele>49</ele>
        <time>2022-06-29T03:50:39Z</time>
      </trkpt>
      <trkpt lat="50.5373" lon="1.64313">
        <ele>47</ele>
        <time>2022-06-29T03:52:53Z</time>
      </trkpt>
      <trkpt lat="50.53568" lon="1.64225">
        <ele>43</ele>
        <time>2022-06-29T03:56:41Z</time>
      </trkpt>
      <trkpt lat="50.53244" lon="1.64081">
        <ele>39</ele>
        <time>2022-06-29T04:04:11Z</time>
      </trkpt>
      <trkpt lat="50.53149" lon="1.63948">
        <ele>48</ele>
        <time>2022-06-29T04:07:00Z</time>
      </trkpt>
      <trkpt lat="50.52767" lon="1.63869">
        <ele>48</ele>
        <time>2022-06-29T04:15:35Z</time>
      </trkpt>
      <trkpt lat="50.52601" lon="1.63869">
        <ele>52</ele>
        <time>2022-06-29T04:19:16Z</time>
      </trkpt>
      <trkpt lat="50.52532" lon="1.63676">
        <ele>38</ele>
        <time>2022-06-29T04:22:24Z</time>
      </trkpt>
      <trkpt lat="50.52444" lon="1.63423">
        <ele>25</ele>
        <time>2022-06-29T04:26:29Z</time>
      </trkpt>
      <trkpt lat="50.52408" lon="1.63353">
        <ele>21</ele>
        <time>2022-06-29T04:27:45Z</time>
      </trkpt>
      <trkpt lat="50.52311" lon="1.63277">
        <ele>14</ele>
        <time>2022-06-29T04:30:10Z</time>
      </trkpt>
      <trkpt lat="50.5227" lon="1.63167">
        <ele>11</ele>
        <time>2022-06-29T04:31:58Z</time>
      </trkpt>
      <trkpt lat="50.52287" lon="1.63075">
        <ele>10</ele>
        <time>2022-06-29T04:33:19Z</time>
      </trkpt>
      <trkpt lat="50.5224" lon="1.62948">
        <ele>8</ele>
        <time>2022-06-29T04:35:24Z</time>
      </trkpt>
      <trkpt lat="50.52209" lon="1.62923">
        <ele>7</ele>
        <time>2022-06-29T04:36:10Z</time>
      </trkpt>
      <trkpt lat="50.52202" lon="1.62877">
        <ele>6</ele>
        <time>2022-06-29T04:36:50Z</time>
      </trkpt>
      <trkpt lat="50.52137" lon="1.62835">
        <ele>5</ele>
        <time>2022-06-29T04:38:24Z</time>
      </trkpt>
      <trkpt lat="50.52087" lon="1.62819">
        <ele>5</ele>
        <time>2022-06-29T04:39:32Z</time>
      </trkpt>
      <trkpt lat="50.52015" lon="1.62828">
        <ele>4</ele>
        <time>2022-06-29T04:41:09Z</time>
      </trkpt>
      <trkpt lat="50.51986" lon="1.62813">
        <ele>4</ele>
        <time>2022-06-29T04:41:49Z</time>
      </trkpt>
      <trkpt lat="50.5192" lon="1.62812">
        <ele>4</ele>
        <time>2022-06-29T04:43:17Z</time>
      </trkpt>
    </trkseg>
  </trk>
</gpx>